sensor_id;sensor_type;location;lat;lon;timestamp;P1;durP1;ratioP1;P2;durP2;ratioP2
75837;SDS011;64480;52.040;113.502;2023-02-01T00:02:26;7.18;;;5.40;;
75837;SDS011;64480;52.040;113.502;2023-02-01T00:06:00;15.15;;;5.75;;
75837;SDS011;64480;52.040;113.502;2023-02-01T00:09:18;8.40;;;3.63;;
75837;SDS011;64480;52.040;113.502;2023-02-01T00:12:37;13.63;;;7.43;;
75837;SDS011;64480;52.040;113.502;2023-02-01T00:16:10;37.42;;;9.18;;
75837;SDS011;64480;52.040;113.502;2023-02-01T00:30:27;11.07;;;6.80;;
75837;SDS011;64480;52.040;113.502;2023-02-01T00:33:48;14.07;;;4.68;;
75837;SDS011;64480;52.040;113.502;2023-02-01T00:37:44;11.75;;;4.13;;
75837;SDS011;64480;52.040;113.502;2023-02-01T00:46:08;5.28;;;3.85;;
75837;SDS011;64480;52.040;113.502;2023-02-01T00:49:28;13.13;;;5.43;;
75837;SDS011;64480;52.040;113.502;2023-02-01T00:52:47;15.05;;;5.15;;
75837;SDS011;64480;52.040;113.502;2023-02-01T00:56:06;18.95;;;6.25;;
75837;SDS011;64480;52.040;113.502;2023-02-01T01:02:51;7.97;;;7.15;;
75837;SDS011;64480;52.040;113.502;2023-02-01T01:06:14;12.27;;;5.85;;
75837;SDS011;64480;52.040;113.502;2023-02-01T01:09:34;11.25;;;5.97;;
75837;SDS011;64480;52.040;113.502;2023-02-01T01:12:54;12.90;;;7.22;;
75837;SDS011;64480;52.040;113.502;2023-02-01T01:16:16;10.32;;;5.53;;
75837;SDS011;64480;52.040;113.502;2023-02-01T01:19:36;16.65;;;7.32;;
75837;SDS011;64480;52.040;113.502;2023-02-01T01:22:55;10.23;;;3.58;;
75837;SDS011;64480;52.040;113.502;2023-02-01T01:26:15;17.33;;;6.72;;
75837;SDS011;64480;52.040;113.502;2023-02-01T01:29:35;10.95;;;4.25;;
75837;SDS011;64480;52.040;113.502;2023-02-01T01:33:00;7.75;;;5.18;;
75837;SDS011;64480;52.040;113.502;2023-02-01T01:36:20;8.82;;;4.75;;
75837;SDS011;64480;52.040;113.502;2023-02-01T01:39:38;15.70;;;6.72;;
75837;SDS011;64480;52.040;113.502;2023-02-01T01:43:14;14.90;;;5.53;;
75837;SDS011;64480;52.040;113.502;2023-02-01T01:47:05;18.40;;;7.10;;
75837;SDS011;64480;52.040;113.502;2023-02-01T01:50:30;12.30;;;5.82;;
75837;SDS011;64480;52.040;113.502;2023-02-01T01:54:08;17.25;;;9.32;;
75837;SDS011;64480;52.040;113.502;2023-02-01T01:57:48;18.25;;;9.40;;
75837;SDS011;64480;52.040;113.502;2023-02-01T02:05:40;43.42;;;17.85;;
75837;SDS011;64480;52.040;113.502;2023-02-01T02:09:02;59.35;;;19.75;;
75837;SDS011;64480;52.040;113.502;2023-02-01T02:12:40;38.28;;;17.98;;
75837;SDS011;64480;52.040;113.502;2023-02-01T02:27:56;29.42;;;12.00;;
75837;SDS011;64480;52.040;113.502;2023-02-01T02:53:53;37.20;;;14.48;;
75837;SDS011;64480;52.040;113.502;2023-02-01T02:57:53;27.30;;;10.35;;
75837;SDS011;64480;52.040;113.502;2023-02-01T03:01:34;35.83;;;12.43;;
75837;SDS011;64480;52.040;113.502;2023-02-01T03:05:00;31.27;;;12.30;;
75837;SDS011;64480;52.040;113.502;2023-02-01T03:08:28;20.23;;;7.65;;
75837;SDS011;64480;52.040;113.502;2023-02-01T03:16:01;12.57;;;5.43;;
75837;SDS011;64480;52.040;113.502;2023-02-01T03:23:20;15.90;;;7.50;;
75837;SDS011;64480;52.040;113.502;2023-02-01T03:27:25;20.33;;;7.22;;
75837;SDS011;64480;52.040;113.502;2023-02-01T03:31:18;18.77;;;7.57;;
75837;SDS011;64480;52.040;113.502;2023-02-01T03:34:36;15.75;;;6.47;;
75837;SDS011;64480;52.040;113.502;2023-02-01T03:37:56;15.52;;;6.38;;
75837;SDS011;64480;52.040;113.502;2023-02-01T03:41:52;15.25;;;4.70;;
75837;SDS011;64480;52.040;113.502;2023-02-01T03:45:18;8.05;;;3.83;;
75837;SDS011;64480;52.040;113.502;2023-02-01T03:59:23;5.65;;;2.25;;
75837;SDS011;64480;52.040;113.502;2023-02-01T04:02:46;1.95;;;0.60;;
75837;SDS011;64480;52.040;113.502;2023-02-01T04:05:52;10.43;;;3.78;;
75837;SDS011;64480;52.040;113.502;2023-02-01T04:16:39;15.93;;;4.15;;
75837;SDS011;64480;52.040;113.502;2023-02-01T04:20:23;9.48;;;4.03;;
75837;SDS011;64480;52.040;113.502;2023-02-01T04:23:40;9.65;;;3.70;;
75837;SDS011;64480;52.040;113.502;2023-02-01T04:27:01;11.02;;;4.75;;
75837;SDS011;64480;52.040;113.502;2023-02-01T04:30:26;14.13;;;5.28;;
75837;SDS011;64480;52.040;113.502;2023-02-01T04:33:54;9.15;;;4.85;;
75837;SDS011;64480;52.040;113.502;2023-02-01T04:37:15;21.27;;;8.15;;
75837;SDS011;64480;52.040;113.502;2023-02-01T04:44:27;9.73;;;4.63;;
75837;SDS011;64480;52.040;113.502;2023-02-01T04:47:45;8.77;;;3.75;;
75837;SDS011;64480;52.040;113.502;2023-02-01T04:51:35;11.98;;;4.43;;
75837;SDS011;64480;52.040;113.502;2023-02-01T04:55:06;11.55;;;5.55;;
75837;SDS011;64480;52.040;113.502;2023-02-01T05:10:29;14.05;;;5.50;;
75837;SDS011;64480;52.040;113.502;2023-02-01T05:41:38;17.05;;;5.72;;
75837;SDS011;64480;52.040;113.502;2023-02-01T05:45:09;12.73;;;4.22;;
75837;SDS011;64480;52.040;113.502;2023-02-01T05:48:59;8.20;;;3.30;;
75837;SDS011;64480;52.040;113.502;2023-02-01T05:59:36;8.25;;;2.90;;
75837;SDS011;64480;52.040;113.502;2023-02-01T06:02:58;8.57;;;3.30;;
75837;SDS011;64480;52.040;113.502;2023-02-01T06:06:20;4.05;;;2.58;;
75837;SDS011;64480;52.040;113.502;2023-02-01T06:09:37;8.10;;;3.45;;
75837;SDS011;64480;52.040;113.502;2023-02-01T06:13:01;5.90;;;3.20;;
75837;SDS011;64480;52.040;113.502;2023-02-01T06:16:23;6.38;;;1.60;;
75837;SDS011;64480;52.040;113.502;2023-02-01T06:20:29;9.73;;;2.97;;
75837;SDS011;64480;52.040;113.502;2023-02-01T06:32:18;5.65;;;2.67;;
75837;SDS011;64480;52.040;113.502;2023-02-01T06:36:17;12.77;;;4.15;;
75837;SDS011;64480;52.040;113.502;2023-02-01T06:40:13;11.70;;;5.20;;
75837;SDS011;64480;52.040;113.502;2023-02-01T06:44:37;12.52;;;4.90;;
75837;SDS011;64480;52.040;113.502;2023-02-01T06:47:58;12.65;;;4.47;;
75837;SDS011;64480;52.040;113.502;2023-02-01T06:51:49;5.93;;;2.80;;
75837;SDS011;64480;52.040;113.502;2023-02-01T06:55:33;6.95;;;3.58;;
75837;SDS011;64480;52.040;113.502;2023-02-01T07:00:13;6.00;;;2.45;;
75837;SDS011;64480;52.040;113.502;2023-02-01T07:03:47;4.70;;;2.50;;
75837;SDS011;64480;52.040;113.502;2023-02-01T07:07:47;10.18;;;3.80;;
75837;SDS011;64480;52.040;113.502;2023-02-01T07:11:17;5.60;;;2.63;;
75837;SDS011;64480;52.040;113.502;2023-02-01T07:14:39;8.77;;;3.38;;
75837;SDS011;64480;52.040;113.502;2023-02-01T07:17:57;12.10;;;4.18;;
75837;SDS011;64480;52.040;113.502;2023-02-01T07:29:03;14.55;;;3.58;;
75837;SDS011;64480;52.040;113.502;2023-02-01T07:32:26;8.68;;;2.83;;
75837;SDS011;64480;52.040;113.502;2023-02-01T07:36:23;9.80;;;3.60;;
75837;SDS011;64480;52.040;113.502;2023-02-01T07:40:26;9.68;;;4.10;;
75837;SDS011;64480;52.040;113.502;2023-02-01T07:43:51;11.00;;;3.33;;
75837;SDS011;64480;52.040;113.502;2023-02-01T07:47:09;5.25;;;1.83;;
75837;SDS011;64480;52.040;113.502;2023-02-01T07:50:29;12.10;;;3.80;;
75837;SDS011;64480;52.040;113.502;2023-02-01T07:53:39;8.85;;;4.25;;
75837;SDS011;64480;52.040;113.502;2023-02-01T07:56:58;6.00;;;2.42;;
75837;SDS011;64480;52.040;113.502;2023-02-01T08:00:32;11.13;;;4.28;;
75837;SDS011;64480;52.040;113.502;2023-02-01T08:04:15;3.83;;;1.95;;
75837;SDS011;64480;52.040;113.502;2023-02-01T08:07:34;10.77;;;4.30;;
75837;SDS011;64480;52.040;113.502;2023-02-01T08:11:03;11.73;;;3.45;;
75837;SDS011;64480;52.040;113.502;2023-02-01T08:14:24;9.93;;;4.28;;
75837;SDS011;64480;52.040;113.502;2023-02-01T08:18:28;8.15;;;3.63;;
75837;SDS011;64480;52.040;113.502;2023-02-01T08:21:49;13.63;;;4.97;;
75837;SDS011;64480;52.040;113.502;2023-02-01T08:25:20;9.80;;;3.58;;
75837;SDS011;64480;52.040;113.502;2023-02-01T08:29:20;14.65;;;4.88;;
75837;SDS011;64480;52.040;113.502;2023-02-01T08:36:49;7.57;;;3.55;;
75837;SDS011;64480;52.040;113.502;2023-02-01T08:40:31;7.85;;;3.53;;
75837;SDS011;64480;52.040;113.502;2023-02-01T08:47:40;14.05;;;5.88;;
75837;SDS011;64480;52.040;113.502;2023-02-01T08:51:13;8.75;;;4.10;;
75837;SDS011;64480;52.040;113.502;2023-02-01T08:54:51;11.93;;;5.68;;
75837;SDS011;64480;52.040;113.502;2023-02-01T08:58:18;12.05;;;4.55;;
75837;SDS011;64480;52.040;113.502;2023-02-01T09:01:41;10.13;;;4.57;;
75837;SDS011;64480;52.040;113.502;2023-02-01T09:09:13;17.52;;;6.18;;
75837;SDS011;64480;52.040;113.502;2023-02-01T09:12:39;16.85;;;5.28;;
75837;SDS011;64480;52.040;113.502;2023-02-01T09:23:43;22.40;;;7.63;;
75837;SDS011;64480;52.040;113.502;2023-02-01T09:27:05;26.15;;;8.57;;
75837;SDS011;64480;52.040;113.502;2023-02-01T09:37:37;56.17;;;21.42;;
75837;SDS011;64480;52.040;113.502;2023-02-01T09:45:42;53.67;;;20.63;;
75837;SDS011;64480;52.040;113.502;2023-02-01T09:49:37;47.88;;;20.42;;
75837;SDS011;64480;52.040;113.502;2023-02-01T09:57:08;58.30;;;20.25;;
75837;SDS011;64480;52.040;113.502;2023-02-01T10:00:50;60.55;;;22.60;;
75837;SDS011;64480;52.040;113.502;2023-02-01T10:04:19;63.92;;;25.45;;
75837;SDS011;64480;52.040;113.502;2023-02-01T10:22:30;87.57;;;28.80;;
75837;SDS011;64480;52.040;113.502;2023-02-01T10:29:53;48.47;;;17.65;;
75837;SDS011;64480;52.040;113.502;2023-02-01T10:33:25;50.58;;;17.92;;
75837;SDS011;64480;52.040;113.502;2023-02-01T10:37:08;39.53;;;13.80;;
75837;SDS011;64480;52.040;113.502;2023-02-01T10:41:12;33.25;;;10.85;;
75837;SDS011;64480;52.040;113.502;2023-02-01T10:44:40;16.05;;;6.47;;
75837;SDS011;64480;52.040;113.502;2023-02-01T10:48:03;13.48;;;5.18;;
75837;SDS011;64480;52.040;113.502;2023-02-01T10:51:42;13.80;;;4.80;;
75837;SDS011;64480;52.040;113.502;2023-02-01T10:59:36;28.42;;;7.53;;
75837;SDS011;64480;52.040;113.502;2023-02-01T11:06:37;17.50;;;8.00;;
75837;SDS011;64480;52.040;113.502;2023-02-01T11:10:01;37.17;;;10.52;;
75837;SDS011;64480;52.040;113.502;2023-02-01T11:27:55;38.58;;;15.07;;
75837;SDS011;64480;52.040;113.502;2023-02-01T11:31:13;43.95;;;14.88;;
75837;SDS011;64480;52.040;113.502;2023-02-01T11:34:41;35.35;;;14.60;;
75837;SDS011;64480;52.040;113.502;2023-02-01T11:38:38;28.30;;;10.63;;
75837;SDS011;64480;52.040;113.502;2023-02-01T11:42:18;52.13;;;19.83;;
75837;SDS011;64480;52.040;113.502;2023-02-01T11:46:00;63.63;;;17.48;;
75837;SDS011;64480;52.040;113.502;2023-02-01T11:52:52;65.38;;;25.05;;
75837;SDS011;64480;52.040;113.502;2023-02-01T12:00:48;30.42;;;12.77;;
75837;SDS011;64480;52.040;113.502;2023-02-01T12:04:31;28.98;;;9.15;;
75837;SDS011;64480;52.040;113.502;2023-02-01T12:17:26;24.20;;;9.85;;
75837;SDS011;64480;52.040;113.502;2023-02-01T12:21:10;19.88;;;8.02;;
75837;SDS011;64480;52.040;113.502;2023-02-01T12:28:31;62.75;;;20.88;;
75837;SDS011;64480;52.040;113.502;2023-02-01T12:39:48;101.13;;;32.83;;
75837;SDS011;64480;52.040;113.502;2023-02-01T12:43:23;115.53;;;34.13;;
75837;SDS011;64480;52.040;113.502;2023-02-01T12:46:53;136.95;;;41.35;;
75837;SDS011;64480;52.040;113.502;2023-02-01T12:50:27;128.00;;;42.20;;
75837;SDS011;64480;52.040;113.502;2023-02-01T12:54:18;116.80;;;36.47;;
75837;SDS011;64480;52.040;113.502;2023-02-01T12:57:42;124.97;;;38.88;;
75837;SDS011;64480;52.040;113.502;2023-02-01T13:08:36;69.57;;;25.60;;
75837;SDS011;64480;52.040;113.502;2023-02-01T13:12:04;52.50;;;19.80;;
75837;SDS011;64480;52.040;113.502;2023-02-01T13:15:39;70.70;;;22.65;;
75837;SDS011;64480;52.040;113.502;2023-02-01T13:19:16;58.97;;;24.30;;
75837;SDS011;64480;52.040;113.502;2023-02-01T13:22:46;54.40;;;21.77;;
75837;SDS011;64480;52.040;113.502;2023-02-01T13:26:00;66.95;;;25.58;;
75837;SDS011;64480;52.040;113.502;2023-02-01T13:29:19;64.63;;;23.05;;
75837;SDS011;64480;52.040;113.502;2023-02-01T13:40:24;146.95;;;46.03;;
75837;SDS011;64480;52.040;113.502;2023-02-01T13:43:39;147.70;;;48.83;;
75837;SDS011;64480;52.040;113.502;2023-02-01T13:47:22;114.88;;;41.92;;
75837;SDS011;64480;52.040;113.502;2023-02-01T13:50:58;102.18;;;34.60;;
75837;SDS011;64480;52.040;113.502;2023-02-01T13:54:26;103.93;;;36.70;;
75837;SDS011;64480;52.040;113.502;2023-02-01T13:57:44;102.70;;;38.22;;
75837;SDS011;64480;52.040;113.502;2023-02-01T14:04:47;142.00;;;43.03;;
75837;SDS011;64480;52.040;113.502;2023-02-01T14:08:09;103.80;;;40.90;;
75837;SDS011;64480;52.040;113.502;2023-02-01T14:11:35;98.22;;;34.25;;
75837;SDS011;64480;52.040;113.502;2023-02-01T14:15:17;81.90;;;29.38;;
75837;SDS011;64480;52.040;113.502;2023-02-01T14:22:48;37.20;;;19.33;;
75837;SDS011;64480;52.040;113.502;2023-02-01T14:25:59;57.60;;;23.92;;
75837;SDS011;64480;52.040;113.502;2023-02-01T14:29:26;55.28;;;21.80;;
75837;SDS011;64480;52.040;113.502;2023-02-01T14:33:17;63.90;;;21.95;;
75837;SDS011;64480;52.040;113.502;2023-02-01T14:36:43;67.45;;;24.10;;
75837;SDS011;64480;52.040;113.502;2023-02-01T14:39:58;78.55;;;27.77;;
75837;SDS011;64480;52.040;113.502;2023-02-01T14:47:38;68.25;;;24.40;;
75837;SDS011;64480;52.040;113.502;2023-02-01T14:50:50;76.82;;;27.58;;
75837;SDS011;64480;52.040;113.502;2023-02-01T14:54:18;75.47;;;27.10;;
75837;SDS011;64480;52.040;113.502;2023-02-01T14:57:43;52.08;;;21.98;;
75837;SDS011;64480;52.040;113.502;2023-02-01T15:01:02;75.25;;;25.70;;
75837;SDS011;64480;52.040;113.502;2023-02-01T15:04:15;45.63;;;21.15;;
75837;SDS011;64480;52.040;113.502;2023-02-01T15:07:44;49.78;;;21.42;;
75837;SDS011;64480;52.040;113.502;2023-02-01T15:11:06;52.15;;;22.17;;
75837;SDS011;64480;52.040;113.502;2023-02-01T15:15:20;54.33;;;17.92;;
75837;SDS011;64480;52.040;113.502;2023-02-01T15:18:26;47.88;;;23.42;;
75837;SDS011;64480;52.040;113.502;2023-02-01T15:21:46;55.70;;;24.52;;
75837;SDS011;64480;52.040;113.502;2023-02-01T15:24:54;132.80;;;42.70;;
75837;SDS011;64480;52.040;113.502;2023-02-01T15:28:26;58.88;;;28.67;;
75837;SDS011;64480;52.040;113.502;2023-02-01T15:31:35;76.55;;;30.17;;
75837;SDS011;64480;52.040;113.502;2023-02-01T15:34:56;93.78;;;33.05;;
75837;SDS011;64480;52.040;113.502;2023-02-01T15:41:30;91.03;;;31.02;;
75837;SDS011;64480;52.040;113.502;2023-02-01T15:47:46;92.65;;;35.95;;
75837;SDS011;64480;52.040;113.502;2023-02-01T15:50:52;88.82;;;36.58;;
75837;SDS011;64480;52.040;113.502;2023-02-01T15:54:02;114.00;;;34.58;;
75837;SDS011;64480;52.040;113.502;2023-02-01T15:57:30;117.18;;;41.53;;
75837;SDS011;64480;52.040;113.502;2023-02-01T16:00:43;137.35;;;45.65;;
75837;SDS011;64480;52.040;113.502;2023-02-01T16:04:22;121.93;;;48.72;;
75837;SDS011;64480;52.040;113.502;2023-02-01T16:07:37;133.05;;;50.65;;
75837;SDS011;64480;52.040;113.502;2023-02-01T16:10:47;91.28;;;38.60;;
75837;SDS011;64480;52.040;113.502;2023-02-01T16:14:01;76.70;;;29.77;;
75837;SDS011;64480;52.040;113.502;2023-02-01T16:17:05;85.63;;;36.25;;
75837;SDS011;64480;52.040;113.502;2023-02-01T16:20:18;129.57;;;47.63;;
75837;SDS011;64480;52.040;113.502;2023-02-01T16:23:29;126.32;;;43.08;;
75837;SDS011;64480;52.040;113.502;2023-02-01T16:26:50;92.22;;;40.30;;
75837;SDS011;64480;52.040;113.502;2023-02-01T16:30:07;131.50;;;49.22;;
75837;SDS011;64480;52.040;113.502;2023-02-01T16:33:19;264.95;;;89.63;;
75837;SDS011;64480;52.040;113.502;2023-02-01T16:39:47;169.65;;;55.67;;
75837;SDS011;64480;52.040;113.502;2023-02-01T16:43:05;66.68;;;28.25;;
75837;SDS011;64480;52.040;113.502;2023-02-01T16:46:17;105.65;;;33.58;;
75837;SDS011;64480;52.040;113.502;2023-02-01T16:49:37;115.78;;;38.20;;
75837;SDS011;64480;52.040;113.502;2023-02-01T16:52:45;108.15;;;31.92;;
75837;SDS011;64480;52.040;113.502;2023-02-01T16:56:01;81.78;;;28.98;;
75837;SDS011;64480;52.040;113.502;2023-02-01T16:59:11;94.75;;;30.20;;
75837;SDS011;64480;52.040;113.502;2023-02-01T17:02:29;109.65;;;35.45;;
75837;SDS011;64480;52.040;113.502;2023-02-01T17:05:34;97.22;;;28.48;;
75837;SDS011;64480;52.040;113.502;2023-02-01T17:08:55;121.63;;;41.65;;
75837;SDS011;64480;52.040;113.502;2023-02-01T17:12:09;104.15;;;34.65;;
75837;SDS011;64480;52.040;113.502;2023-02-01T17:15:32;75.43;;;29.88;;
75837;SDS011;64480;52.040;113.502;2023-02-01T17:18:39;47.95;;;29.75;;
75837;SDS011;64480;52.040;113.502;2023-02-01T17:21:46;177.98;;;55.83;;
75837;SDS011;64480;52.040;113.502;2023-02-01T17:25:13;116.78;;;53.45;;
75837;SDS011;64480;52.040;113.502;2023-02-01T17:28:32;99.40;;;49.17;;
75837;SDS011;64480;52.040;113.502;2023-02-01T17:31:41;194.20;;;68.78;;
75837;SDS011;64480;52.040;113.502;2023-02-01T17:34:47;142.55;;;60.42;;
75837;SDS011;64480;52.040;113.502;2023-02-01T17:37:55;115.25;;;44.92;;
75837;SDS011;64480;52.040;113.502;2023-02-01T17:41:01;73.97;;;38.05;;
75837;SDS011;64480;52.040;113.502;2023-02-01T17:44:18;170.65;;;61.78;;
75837;SDS011;64480;52.040;113.502;2023-02-01T17:47:23;150.68;;;61.45;;
75837;SDS011;64480;52.040;113.502;2023-02-01T17:50:33;144.63;;;61.50;;
75837;SDS011;64480;52.040;113.502;2023-02-01T17:53:41;168.88;;;65.63;;
75837;SDS011;64480;52.040;113.502;2023-02-01T17:57:01;187.00;;;74.93;;
75837;SDS011;64480;52.040;113.502;2023-02-01T18:00:19;169.50;;;65.22;;
75837;SDS011;64480;52.040;113.502;2023-02-01T18:03:29;197.10;;;78.15;;
75837;SDS011;64480;52.040;113.502;2023-02-01T18:06:51;192.82;;;83.28;;
75837;SDS011;64480;52.040;113.502;2023-02-01T18:09:58;172.68;;;73.95;;
75837;SDS011;64480;52.040;113.502;2023-02-01T18:13:17;196.15;;;73.60;;
75837;SDS011;64480;52.040;113.502;2023-02-01T18:16:36;263.92;;;92.80;;
75837;SDS011;64480;52.040;113.502;2023-02-01T18:19:54;273.67;;;96.53;;
75837;SDS011;64480;52.040;113.502;2023-02-01T18:23:17;260.05;;;89.35;;
75837;SDS011;64480;52.040;113.502;2023-02-01T18:26:26;288.98;;;105.10;;
75837;SDS011;64480;52.040;113.502;2023-02-01T18:29:34;261.73;;;87.07;;
75837;SDS011;64480;52.040;113.502;2023-02-01T18:32:50;164.30;;;61.90;;
75837;SDS011;64480;52.040;113.502;2023-02-01T18:36:00;115.60;;;41.85;;
75837;SDS011;64480;52.040;113.502;2023-02-01T18:39:11;113.00;;;39.60;;
75837;SDS011;64480;52.040;113.502;2023-02-01T18:42:15;128.30;;;47.80;;
75837;SDS011;64480;52.040;113.502;2023-02-01T18:45:35;161.52;;;54.33;;
75837;SDS011;64480;52.040;113.502;2023-02-01T18:51:59;81.82;;;33.55;;
75837;SDS011;64480;52.040;113.502;2023-02-01T18:55:09;45.30;;;26.33;;
75837;SDS011;64480;52.040;113.502;2023-02-01T18:58:27;38.67;;;22.08;;
75837;SDS011;64480;52.040;113.502;2023-02-01T19:01:39;139.65;;;42.72;;
75837;SDS011;64480;52.040;113.502;2023-02-01T19:04:46;173.40;;;54.60;;
75837;SDS011;64480;52.040;113.502;2023-02-01T19:08:04;62.10;;;26.77;;
75837;SDS011;64480;52.040;113.502;2023-02-01T19:11:23;151.82;;;50.85;;
75837;SDS011;64480;52.040;113.502;2023-02-01T19:14:31;41.65;;;22.35;;
75837;SDS011;64480;52.040;113.502;2023-02-01T19:17:51;74.97;;;31.02;;
75837;SDS011;64480;52.040;113.502;2023-02-01T19:21:04;177.15;;;53.45;;
75837;SDS011;64480;52.040;113.502;2023-02-01T19:24:22;91.70;;;34.58;;
75837;SDS011;64480;52.040;113.502;2023-02-01T19:27:43;73.68;;;28.52;;
75837;SDS011;64480;52.040;113.502;2023-02-01T19:31:01;93.88;;;30.08;;
75837;SDS011;64480;52.040;113.502;2023-02-01T19:34:10;67.00;;;25.63;;
75837;SDS011;64480;52.040;113.502;2023-02-01T19:37:15;56.90;;;22.55;;
75837;SDS011;64480;52.040;113.502;2023-02-01T19:40:29;82.20;;;32.20;;
75837;SDS011;64480;52.040;113.502;2023-02-01T19:43:46;109.65;;;35.15;;
75837;SDS011;64480;52.040;113.502;2023-02-01T19:47:03;48.72;;;22.00;;
75837;SDS011;64480;52.040;113.502;2023-02-01T19:50:20;54.65;;;23.20;;
75837;SDS011;64480;52.040;113.502;2023-02-01T19:53:36;69.15;;;26.90;;
75837;SDS011;64480;52.040;113.502;2023-02-01T19:56:55;43.17;;;19.50;;
75837;SDS011;64480;52.040;113.502;2023-02-01T20:00:12;109.97;;;34.42;;
75837;SDS011;64480;52.040;113.502;2023-02-01T20:03:27;24.27;;;14.68;;
75837;SDS011;64480;52.040;113.502;2023-02-01T20:06:37;36.78;;;17.67;;
75837;SDS011;64480;52.040;113.502;2023-02-01T20:09:46;46.42;;;18.67;;
75837;SDS011;64480;52.040;113.502;2023-02-01T20:12:54;53.13;;;18.80;;
75837;SDS011;64480;52.040;113.502;2023-02-01T20:16:11;38.47;;;13.30;;
75837;SDS011;64480;52.040;113.502;2023-02-01T20:19:17;17.10;;;8.38;;
75837;SDS011;64480;52.040;113.502;2023-02-01T20:22:34;28.45;;;15.18;;
75837;SDS011;64480;52.040;113.502;2023-02-01T20:25:50;65.03;;;20.52;;
75837;SDS011;64480;52.040;113.502;2023-02-01T20:28:54;11.35;;;9.07;;
75837;SDS011;64480;52.040;113.502;2023-02-01T20:32:15;25.55;;;13.43;;
75837;SDS011;64480;52.040;113.502;2023-02-01T20:35:34;57.47;;;22.33;;
75837;SDS011;64480;52.040;113.502;2023-02-01T20:38:45;58.15;;;20.40;;
75837;SDS011;64480;52.040;113.502;2023-02-01T20:42:01;40.20;;;19.55;;
75837;SDS011;64480;52.040;113.502;2023-02-01T20:45:10;65.85;;;25.13;;
75837;SDS011;64480;52.040;113.502;2023-02-01T20:48:14;48.55;;;20.38;;
75837;SDS011;64480;52.040;113.502;2023-02-01T20:51:33;66.93;;;22.10;;
75837;SDS011;64480;52.040;113.502;2023-02-01T20:54:49;39.10;;;20.27;;
75837;SDS011;64480;52.040;113.502;2023-02-01T20:57:56;45.55;;;22.73;;
75837;SDS011;64480;52.040;113.502;2023-02-01T21:01:13;48.60;;;20.80;;
75837;SDS011;64480;52.040;113.502;2023-02-01T21:04:39;43.97;;;22.17;;
75837;SDS011;64480;52.040;113.502;2023-02-01T21:07:59;53.75;;;27.25;;
75837;SDS011;64480;52.040;113.502;2023-02-01T21:11:16;88.97;;;33.58;;
75837;SDS011;64480;52.040;113.502;2023-02-01T21:14:34;153.80;;;53.35;;
75837;SDS011;64480;52.040;113.502;2023-02-01T21:17:52;55.60;;;25.38;;
75837;SDS011;64480;52.040;113.502;2023-02-01T21:21:02;96.82;;;38.17;;
75837;SDS011;64480;52.040;113.502;2023-02-01T21:24:10;101.85;;;35.65;;
75837;SDS011;64480;52.040;113.502;2023-02-01T21:27:18;121.15;;;43.95;;
75837;SDS011;64480;52.040;113.502;2023-02-01T21:30:37;100.50;;;35.53;;
75837;SDS011;64480;52.040;113.502;2023-02-01T21:33:55;61.60;;;22.63;;
75837;SDS011;64480;52.040;113.502;2023-02-01T21:37:02;67.90;;;24.98;;
75837;SDS011;64480;52.040;113.502;2023-02-01T21:40:19;54.70;;;21.25;;
75837;SDS011;64480;52.040;113.502;2023-02-01T21:43:38;47.03;;;21.23;;
75837;SDS011;64480;52.040;113.502;2023-02-01T21:46:55;33.42;;;14.32;;
75837;SDS011;64480;52.040;113.502;2023-02-01T21:50:16;45.80;;;24.23;;
75837;SDS011;64480;52.040;113.502;2023-02-01T21:53:35;61.53;;;19.30;;
75837;SDS011;64480;52.040;113.502;2023-02-01T21:56:46;41.83;;;21.38;;
75837;SDS011;64480;52.040;113.502;2023-02-01T22:00:04;28.92;;;16.90;;
75837;SDS011;64480;52.040;113.502;2023-02-01T22:03:24;38.17;;;25.05;;
75837;SDS011;64480;52.040;113.502;2023-02-01T22:06:43;60.55;;;25.65;;
75837;SDS011;64480;52.040;113.502;2023-02-01T22:10:02;47.33;;;21.27;;
75837;SDS011;64480;52.040;113.502;2023-02-01T22:13:22;63.55;;;33.50;;
75837;SDS011;64480;52.040;113.502;2023-02-01T22:16:27;54.92;;;27.98;;
75837;SDS011;64480;52.040;113.502;2023-02-01T22:19:46;59.70;;;27.80;;
75837;SDS011;64480;52.040;113.502;2023-02-01T22:23:04;73.18;;;27.27;;
75837;SDS011;64480;52.040;113.502;2023-02-01T22:26:25;55.78;;;31.15;;
75837;SDS011;64480;52.040;113.502;2023-02-01T22:29:33;151.38;;;53.20;;
75837;SDS011;64480;52.040;113.502;2023-02-01T22:32:45;49.65;;;29.08;;
75837;SDS011;64480;52.040;113.502;2023-02-01T22:39:58;85.70;;;34.72;;
75837;SDS011;64480;52.040;113.502;2023-02-01T22:43:18;66.80;;;36.28;;
75837;SDS011;64480;52.040;113.502;2023-02-01T22:46:44;111.07;;;48.55;;
75837;SDS011;64480;52.040;113.502;2023-02-01T22:50:04;85.55;;;37.58;;
75837;SDS011;64480;52.040;113.502;2023-02-01T22:53:25;120.65;;;42.95;;
75837;SDS011;64480;52.040;113.502;2023-02-01T22:56:47;70.28;;;31.45;;
75837;SDS011;64480;52.040;113.502;2023-02-01T23:00:05;42.92;;;27.02;;
75837;SDS011;64480;52.040;113.502;2023-02-01T23:07:02;64.13;;;31.33;;
75837;SDS011;64480;52.040;113.502;2023-02-01T23:21:11;92.03;;;37.30;;
75837;SDS011;64480;52.040;113.502;2023-02-01T23:24:52;133.30;;;51.78;;
75837;SDS011;64480;52.040;113.502;2023-02-01T23:28:13;149.65;;;49.58;;
75837;SDS011;64480;52.040;113.502;2023-02-01T23:31:56;75.65;;;28.77;;
75837;SDS011;64480;52.040;113.502;2023-02-01T23:36:00;102.75;;;40.00;;
75837;SDS011;64480;52.040;113.502;2023-02-01T23:39:40;134.18;;;43.30;;
75837;SDS011;64480;52.040;113.502;2023-02-01T23:43:11;68.90;;;28.73;;
75837;SDS011;64480;52.040;113.502;2023-02-01T23:46:46;109.65;;;35.15;;
75837;SDS011;64480;52.040;113.502;2023-02-01T23:50:04;74.82;;;33.05;;
75837;SDS011;64480;52.040;113.502;2023-02-01T23:53:22;151.80;;;45.53;;
